sensor_id;sensor_type;location;lat;lon;timestamp;pressure;altitude;pressure_sealevel;temperature;humidity
12146;BME280;6136;47.032;15.398;2022-09-09T00:00:20;97463.56;;;14.96;nan
12146;BME280;6136;47.032;15.398;2022-09-09T00:03:00;97468.69;;;14.88;nan
12146;BME280;6136;47.032;15.398;2022-09-09T00:05:33;97464.56;;;14.84;nan
12146;BME280;6136;47.032;15.398;2022-09-09T00:08:13;97464.31;;;14.76;nan
12146;BME280;6136;47.032;15.398;2022-09-09T00:10:50;97471.84;;;14.71;nan
12146;BME280;6136;47.032;15.398;2022-09-09T00:13:22;97476.56;;;14.67;nan
12146;BME280;6136;47.032;15.398;2022-09-09T00:15:57;97471.63;;;14.63;nan
12146;BME280;6136;47.032;15.398;2022-09-09T00:18:44;97485.19;;;14.60;nan
12146;BME280;6136;47.032;15.398;2022-09-09T00:21:15;97478.41;;;14.56;nan
12146;BME280;6136;47.032;15.398;2022-09-09T00:23:47;97475.50;;;14.48;nan
12146;BME280;6136;47.032;15.398;2022-09-09T00:26:22;97487.41;;;14.44;nan
12146;BME280;6136;47.032;15.398;2022-09-09T00:29:03;97484.72;;;14.44;nan
12146;BME280;6136;47.032;15.398;2022-09-09T00:31:33;97477.16;;;14.37;nan
12146;BME280;6136;47.032;15.398;2022-09-09T00:34:09;97481.03;;;14.33;nan
12146;BME280;6136;47.032;15.398;2022-09-09T00:36:40;97477.06;;;14.28;nan
12146;BME280;6136;47.032;15.398;2022-09-09T00:39:27;97472.81;;;14.25;nan
12146;BME280;6136;47.032;15.398;2022-09-09T00:42:13;97461.53;;;14.22;nan
12146;BME280;6136;47.032;15.398;2022-09-09T00:44:51;97462.41;;;14.22;nan
12146;BME280;6136;47.032;15.398;2022-09-09T00:47:42;97460.69;;;14.21;nan
12146;BME280;6136;47.032;15.398;2022-09-09T00:50:38;97472.81;;;14.14;nan
12146;BME280;6136;47.032;15.398;2022-09-09T00:53:24;97471.59;;;14.07;nan
12146;BME280;6136;47.032;15.398;2022-09-09T00:56:03;97478.38;;;14.00;nan
12146;BME280;6136;47.032;15.398;2022-09-09T00:58:34;97458.34;;;13.94;nan
12146;BME280;6136;47.032;15.398;2022-09-09T01:01:04;97476.28;;;13.92;nan
12146;BME280;6136;47.032;15.398;2022-09-09T01:03:35;97469.97;;;13.93;nan
12146;BME280;6136;47.032;15.398;2022-09-09T01:06:15;97471.06;;;13.91;nan
12146;BME280;6136;47.032;15.398;2022-09-09T01:09:04;97472.88;;;13.90;nan
12146;BME280;6136;47.032;15.398;2022-09-09T01:11:45;97470.81;;;13.83;nan
12146;BME280;6136;47.032;15.398;2022-09-09T01:14:24;97473.00;;;13.78;nan
12146;BME280;6136;47.032;15.398;2022-09-09T01:17:00;97470.44;;;13.76;nan
12146;BME280;6136;47.032;15.398;2022-09-09T01:19:39;97478.44;;;13.87;nan
12146;BME280;6136;47.032;15.398;2022-09-09T01:22:21;97471.78;;;13.82;nan
12146;BME280;6136;47.032;15.398;2022-09-09T01:25:11;97467.66;;;13.78;nan
12146;BME280;6136;47.032;15.398;2022-09-09T01:27:56;97481.94;;;13.77;nan
12146;BME280;6136;47.032;15.398;2022-09-09T01:30:27;97484.09;;;13.72;nan
12146;BME280;6136;47.032;15.398;2022-09-09T01:32:58;97483.22;;;13.71;nan
12146;BME280;6136;47.032;15.398;2022-09-09T01:35:35;97487.97;;;13.68;nan
12146;BME280;6136;47.032;15.398;2022-09-09T01:38:05;97487.75;;;13.82;nan
12146;BME280;6136;47.032;15.398;2022-09-09T01:40:34;97487.06;;;13.91;nan
12146;BME280;6136;47.032;15.398;2022-09-09T01:43:04;97485.56;;;13.87;nan
12146;BME280;6136;47.032;15.398;2022-09-09T01:45:34;97481.72;;;13.91;nan
12146;BME280;6136;47.032;15.398;2022-09-09T01:48:02;97475.44;;;13.92;nan
12146;BME280;6136;47.032;15.398;2022-09-09T01:50:43;97478.53;;;13.75;nan
12146;BME280;6136;47.032;15.398;2022-09-09T01:53:12;97483.88;;;13.75;nan
12146;BME280;6136;47.032;15.398;2022-09-09T01:55:47;97483.97;;;13.73;nan
12146;BME280;6136;47.032;15.398;2022-09-09T01:58:31;97469.31;;;13.68;nan
12146;BME280;6136;47.032;15.398;2022-09-09T02:01:07;97471.75;;;13.71;nan
12146;BME280;6136;47.032;15.398;2022-09-09T02:03:44;97474.16;;;13.74;nan
12146;BME280;6136;47.032;15.398;2022-09-09T02:06:26;97474.53;;;13.69;nan
12146;BME280;6136;47.032;15.398;2022-09-09T02:09:05;97472.84;;;13.68;nan
12146;BME280;6136;47.032;15.398;2022-09-09T02:11:34;97476.56;;;13.66;nan
12146;BME280;6136;47.032;15.398;2022-09-09T02:14:16;97486.25;;;13.67;nan
12146;BME280;6136;47.032;15.398;2022-09-09T02:16:50;97485.06;;;13.71;nan
12146;BME280;6136;47.032;15.398;2022-09-09T02:19:25;97475.97;;;13.73;nan
12146;BME280;6136;47.032;15.398;2022-09-09T02:22:24;97478.06;;;13.81;nan
12146;BME280;6136;47.032;15.398;2022-09-09T02:24:56;97476.84;;;13.74;nan
12146;BME280;6136;47.032;15.398;2022-09-09T02:27:28;97481.94;;;13.77;nan
12146;BME280;6136;47.032;15.398;2022-09-09T02:29:59;97485.78;;;13.73;nan
12146;BME280;6136;47.032;15.398;2022-09-09T02:32:36;97490.63;;;13.79;nan
12146;BME280;6136;47.032;15.398;2022-09-09T02:35:09;97487.88;;;13.80;nan
12146;BME280;6136;47.032;15.398;2022-09-09T02:37:41;97491.03;;;13.85;nan
12146;BME280;6136;47.032;15.398;2022-09-09T02:40:14;97502.06;;;13.92;nan
12146;BME280;6136;47.032;15.398;2022-09-09T02:42:50;97500.63;;;13.99;nan
12146;BME280;6136;47.032;15.398;2022-09-09T02:45:24;97499.09;;;14.08;nan
12146;BME280;6136;47.032;15.398;2022-09-09T02:48:01;97501.88;;;14.17;nan
12146;BME280;6136;47.032;15.398;2022-09-09T02:50:34;97507.56;;;14.13;nan
12146;BME280;6136;47.032;15.398;2022-09-09T02:53:08;97512.31;;;14.20;nan
12146;BME280;6136;47.032;15.398;2022-09-09T02:55:45;97507.94;;;14.30;nan
12146;BME280;6136;47.032;15.398;2022-09-09T02:58:18;97518.16;;;14.36;nan
12146;BME280;6136;47.032;15.398;2022-09-09T03:00:56;97520.47;;;14.41;nan
12146;BME280;6136;47.032;15.398;2022-09-09T03:03:26;97521.31;;;14.42;nan
12146;BME280;6136;47.032;15.398;2022-09-09T03:05:55;97518.88;;;14.38;nan
12146;BME280;6136;47.032;15.398;2022-09-09T03:08:26;97509.91;;;14.40;nan
12146;BME280;6136;47.032;15.398;2022-09-09T03:10:58;97507.25;;;14.40;nan
12146;BME280;6136;47.032;15.398;2022-09-09T03:13:30;97507.25;;;14.40;nan
12146;BME280;6136;47.032;15.398;2022-09-09T03:16:00;97509.81;;;14.41;nan
12146;BME280;6136;47.032;15.398;2022-09-09T03:18:31;97499.50;;;14.48;nan
12146;BME280;6136;47.032;15.398;2022-09-09T03:21:01;97497.56;;;14.61;nan
12146;BME280;6136;47.032;15.398;2022-09-09T03:23:29;97487.84;;;14.60;nan
12146;BME280;6136;47.032;15.398;2022-09-09T03:26:00;97496.97;;;14.57;nan
12146;BME280;6136;47.032;15.398;2022-09-09T03:28:38;97491.97;;;14.53;nan
12146;BME280;6136;47.032;15.398;2022-09-09T03:31:07;97500.25;;;14.50;nan
12146;BME280;6136;47.032;15.398;2022-09-09T03:33:40;97503.88;;;14.49;nan
12146;BME280;6136;47.032;15.398;2022-09-09T03:36:12;97511.13;;;14.47;nan
12146;BME280;6136;47.032;15.398;2022-09-09T03:38:41;97510.44;;;14.45;nan
12146;BME280;6136;47.032;15.398;2022-09-09T03:41:09;97499.75;;;14.45;nan
12146;BME280;6136;47.032;15.398;2022-09-09T03:43:38;97499.25;;;14.40;nan
12146;BME280;6136;47.032;15.398;2022-09-09T03:46:08;97506.63;;;14.36;nan
12146;BME280;6136;47.032;15.398;2022-09-09T03:48:36;97508.94;;;14.29;nan
12146;BME280;6136;47.032;15.398;2022-09-09T03:51:04;97508.19;;;14.27;nan
12146;BME280;6136;47.032;15.398;2022-09-09T03:53:34;97507.81;;;14.21;nan
12146;BME280;6136;47.032;15.398;2022-09-09T03:56:04;97513.97;;;14.10;nan
12146;BME280;6136;47.032;15.398;2022-09-09T03:58:34;97518.34;;;14.11;nan
12146;BME280;6136;47.032;15.398;2022-09-09T04:01:09;97514.34;;;14.06;nan
12146;BME280;6136;47.032;15.398;2022-09-09T04:03:41;97510.19;;;14.02;nan
12146;BME280;6136;47.032;15.398;2022-09-09T04:06:10;97516.47;;;14.00;nan
12146;BME280;6136;47.032;15.398;2022-09-09T04:08:42;97513.44;;;13.94;nan
12146;BME280;6136;47.032;15.398;2022-09-09T04:11:11;97511.03;;;13.91;nan
12146;BME280;6136;47.032;15.398;2022-09-09T04:13:41;97507.41;;;13.92;nan
12146;BME280;6136;47.032;15.398;2022-09-09T04:16:12;97507.91;;;13.97;nan
12146;BME280;6136;47.032;15.398;2022-09-09T04:18:42;97498.34;;;14.06;nan
12146;BME280;6136;47.032;15.398;2022-09-09T04:21:13;97498.72;;;14.12;nan
12146;BME280;6136;47.032;15.398;2022-09-09T04:23:42;97511.06;;;14.13;nan
12146;BME280;6136;47.032;15.398;2022-09-09T04:26:13;97514.81;;;14.11;nan
12146;BME280;6136;47.032;15.398;2022-09-09T04:28:43;97508.63;;;14.10;nan
12146;BME280;6136;47.032;15.398;2022-09-09T04:31:19;97508.53;;;14.12;nan
12146;BME280;6136;47.032;15.398;2022-09-09T04:33:52;97506.81;;;14.11;nan
12146;BME280;6136;47.032;15.398;2022-09-09T04:36:21;97509.59;;;14.09;nan
12146;BME280;6136;47.032;15.398;2022-09-09T04:38:53;97500.91;;;14.07;nan
12146;BME280;6136;47.032;15.398;2022-09-09T04:41:22;97492.06;;;14.07;nan
12146;BME280;6136;47.032;15.398;2022-09-09T04:43:52;97495.78;;;14.04;nan
12146;BME280;6136;47.032;15.398;2022-09-09T04:46:23;97497.59;;;14.04;nan
12146;BME280;6136;47.032;15.398;2022-09-09T04:48:52;97497.50;;;14.05;nan
12146;BME280;6136;47.032;15.398;2022-09-09T04:51:22;97485.75;;;14.08;nan
12146;BME280;6136;47.032;15.398;2022-09-09T04:53:51;97491.19;;;14.06;nan
12146;BME280;6136;47.032;15.398;2022-09-09T04:56:21;97492.16;;;14.05;nan
12146;BME280;6136;47.032;15.398;2022-09-09T04:58:55;97495.06;;;14.02;nan
12146;BME280;6136;47.032;15.398;2022-09-09T05:01:34;97499.41;;;14.03;nan
12146;BME280;6136;47.032;15.398;2022-09-09T05:04:04;97496.53;;;14.06;nan
12146;BME280;6136;47.032;15.398;2022-09-09T05:06:33;97498.22;;;14.07;nan
12146;BME280;6136;47.032;15.398;2022-09-09T05:09:03;97493.16;;;14.15;nan
12146;BME280;6136;47.032;15.398;2022-09-09T05:11:32;97498.88;;;14.22;nan
12146;BME280;6136;47.032;15.398;2022-09-09T05:14:08;97498.38;;;14.28;nan
12146;BME280;6136;47.032;15.398;2022-09-09T05:16:39;97494.25;;;14.35;nan
12146;BME280;6136;47.032;15.398;2022-09-09T05:19:07;97480.59;;;14.40;nan
12146;BME280;6136;47.032;15.398;2022-09-09T05:21:53;97489.31;;;14.42;nan
12146;BME280;6136;47.032;15.398;2022-09-09T05:24:27;97492.72;;;14.44;nan
12146;BME280;6136;47.032;15.398;2022-09-09T05:26:57;97491.38;;;14.49;nan
12146;BME280;6136;47.032;15.398;2022-09-09T05:29:28;97492.84;;;14.64;nan
12146;BME280;6136;47.032;15.398;2022-09-09T05:31:58;97498.03;;;14.77;nan
12146;BME280;6136;47.032;15.398;2022-09-09T05:34:26;97492.78;;;14.98;nan
12146;BME280;6136;47.032;15.398;2022-09-09T05:36:54;97491.31;;;15.05;nan
12146;BME280;6136;47.032;15.398;2022-09-09T05:39:23;97490.22;;;15.19;nan
12146;BME280;6136;47.032;15.398;2022-09-09T05:41:51;97484.06;;;15.39;nan
12146;BME280;6136;47.032;15.398;2022-09-09T05:44:19;97497.34;;;15.50;nan
12146;BME280;6136;47.032;15.398;2022-09-09T05:46:49;97504.41;;;15.62;nan
12146;BME280;6136;47.032;15.398;2022-09-09T05:49:19;97489.56;;;15.69;nan
12146;BME280;6136;47.032;15.398;2022-09-09T05:51:48;97495.16;;;15.87;nan
12146;BME280;6136;47.032;15.398;2022-09-09T05:54:18;97505.72;;;16.30;nan
12146;BME280;6136;47.032;15.398;2022-09-09T05:56:49;97509.31;;;16.71;nan
12146;BME280;6136;47.032;15.398;2022-09-09T05:59:19;97507.41;;;16.92;nan
12146;BME280;6136;47.032;15.398;2022-09-09T06:01:49;97519.41;;;16.97;nan
12146;BME280;6136;47.032;15.398;2022-09-09T06:04:26;97520.97;;;17.00;nan
12146;BME280;6136;47.032;15.398;2022-09-09T06:06:54;97523.81;;;17.08;nan
12146;BME280;6136;47.032;15.398;2022-09-09T06:09:22;97520.13;;;16.99;nan
12146;BME280;6136;47.032;15.398;2022-09-09T06:11:50;97516.16;;;16.94;nan
12146;BME280;6136;47.032;15.398;2022-09-09T06:14:20;97515.56;;;16.90;nan
12146;BME280;6136;47.032;15.398;2022-09-09T06:16:50;97517.25;;;16.82;nan
12146;BME280;6136;47.032;15.398;2022-09-09T06:19:22;97519.00;;;17.02;nan
12146;BME280;6136;47.032;15.398;2022-09-09T06:21:58;97518.47;;;17.08;nan
12146;BME280;6136;47.032;15.398;2022-09-09T06:24:29;97516.59;;;16.99;nan
12146;BME280;6136;47.032;15.398;2022-09-09T06:26:59;97519.56;;;16.96;nan
12146;BME280;6136;47.032;15.398;2022-09-09T06:29:32;97520.41;;;17.06;nan
12146;BME280;6136;47.032;15.398;2022-09-09T06:32:01;97513.97;;;17.18;nan
12146;BME280;6136;47.032;15.398;2022-09-09T06:34:30;97505.56;;;17.32;nan
12146;BME280;6136;47.032;15.398;2022-09-09T06:37:00;97518.69;;;17.55;nan
12146;BME280;6136;47.032;15.398;2022-09-09T06:39:35;97518.31;;;17.69;nan
12146;BME280;6136;47.032;15.398;2022-09-09T06:42:03;97511.09;;;17.89;nan
12146;BME280;6136;47.032;15.398;2022-09-09T06:44:52;97518.84;;;18.11;nan
12146;BME280;6136;47.032;15.398;2022-09-09T06:47:28;97531.25;;;18.02;nan
12146;BME280;6136;47.032;15.398;2022-09-09T06:49:57;97526.78;;;17.93;nan
12146;BME280;6136;47.032;15.398;2022-09-09T06:52:27;97524.72;;;17.57;nan
12146;BME280;6136;47.032;15.398;2022-09-09T06:54:55;97520.38;;;17.56;nan
12146;BME280;6136;47.032;15.398;2022-09-09T06:57:25;97523.22;;;17.64;nan
12146;BME280;6136;47.032;15.398;2022-09-09T07:00:05;97528.97;;;17.59;nan
12146;BME280;6136;47.032;15.398;2022-09-09T07:02:33;97519.69;;;17.54;nan
12146;BME280;6136;47.032;15.398;2022-09-09T07:05:07;97526.06;;;17.62;nan
12146;BME280;6136;47.032;15.398;2022-09-09T07:07:38;97528.84;;;17.61;nan
12146;BME280;6136;47.032;15.398;2022-09-09T07:10:08;97529.53;;;17.53;nan
12146;BME280;6136;47.032;15.398;2022-09-09T07:12:37;97526.41;;;17.38;nan
12146;BME280;6136;47.032;15.398;2022-09-09T07:15:09;97524.84;;;17.36;nan
12146;BME280;6136;47.032;15.398;2022-09-09T07:17:41;97534.28;;;17.30;nan
12146;BME280;6136;47.032;15.398;2022-09-09T07:20:09;97526.81;;;17.24;nan
12146;BME280;6136;47.032;15.398;2022-09-09T07:22:39;97522.69;;;17.20;nan
12146;BME280;6136;47.032;15.398;2022-09-09T07:25:08;97518.06;;;17.22;nan
12146;BME280;6136;47.032;15.398;2022-09-09T07:27:37;97525.84;;;17.25;nan
12146;BME280;6136;47.032;15.398;2022-09-09T07:30:06;97534.84;;;17.24;nan
12146;BME280;6136;47.032;15.398;2022-09-09T07:32:35;97529.38;;;17.35;nan
12146;BME280;6136;47.032;15.398;2022-09-09T07:35:03;97529.81;;;17.40;nan
12146;BME280;6136;47.032;15.398;2022-09-09T07:37:31;97529.25;;;17.46;nan
12146;BME280;6136;47.032;15.398;2022-09-09T07:40:01;97535.16;;;17.50;nan
12146;BME280;6136;47.032;15.398;2022-09-09T07:42:31;97532.41;;;17.61;nan
12146;BME280;6136;47.032;15.398;2022-09-09T07:44:59;97530.69;;;17.60;nan
12146;BME280;6136;47.032;15.398;2022-09-09T07:47:28;97535.09;;;17.71;nan
12146;BME280;6136;47.032;15.398;2022-09-09T07:49:56;97527.34;;;17.68;nan
12146;BME280;6136;47.032;15.398;2022-09-09T07:52:29;97528.97;;;17.59;nan
12146;BME280;6136;47.032;15.398;2022-09-09T07:55:02;97543.13;;;17.80;nan
12146;BME280;6136;47.032;15.398;2022-09-09T07:57:31;97542.00;;;17.83;nan
12146;BME280;6136;47.032;15.398;2022-09-09T08:00:02;97544.28;;;17.78;nan
12146;BME280;6136;47.032;15.398;2022-09-09T08:02:38;97545.94;;;17.79;nan
12146;BME280;6136;47.032;15.398;2022-09-09T08:05:08;97551.28;;;17.79;nan
12146;BME280;6136;47.032;15.398;2022-09-09T08:07:38;97550.03;;;17.83;nan
12146;BME280;6136;47.032;15.398;2022-09-09T08:10:08;97540.31;;;17.92;nan
12146;BME280;6136;47.032;15.398;2022-09-09T08:12:39;97547.22;;;17.94;nan
12146;BME280;6136;47.032;15.398;2022-09-09T08:15:13;97542.88;;;17.93;nan
12146;BME280;6136;47.032;15.398;2022-09-09T08:17:42;97541.13;;;18.02;nan
12146;BME280;6136;47.032;15.398;2022-09-09T08:20:11;97543.56;;;18.05;nan
12146;BME280;6136;47.032;15.398;2022-09-09T08:22:39;97546.38;;;18.03;nan
12146;BME280;6136;47.032;15.398;2022-09-09T08:25:09;97547.63;;;18.09;nan
12146;BME280;6136;47.032;15.398;2022-09-09T08:27:38;97552.00;;;18.19;nan
12146;BME280;6136;47.032;15.398;2022-09-09T08:30:07;97549.47;;;18.18;nan
12146;BME280;6136;47.032;15.398;2022-09-09T08:32:35;97553.13;;;18.17;nan
12146;BME280;6136;47.032;15.398;2022-09-09T08:35:06;97563.19;;;18.15;nan
12146;BME280;6136;47.032;15.398;2022-09-09T08:37:34;97559.06;;;18.11;nan
12146;BME280;6136;47.032;15.398;2022-09-09T08:40:04;97563.59;;;18.30;nan
12146;BME280;6136;47.032;15.398;2022-09-09T08:42:41;97570.19;;;18.35;nan
12146;BME280;6136;47.032;15.398;2022-09-09T08:45:24;97573.13;;;18.61;nan
12146;BME280;6136;47.032;15.398;2022-09-09T08:48:13;97571.56;;;18.68;nan
12146;BME280;6136;47.032;15.398;2022-09-09T08:50:42;97570.41;;;18.80;nan
12146;BME280;6136;47.032;15.398;2022-09-09T08:53:21;97568.72;;;18.79;nan
12146;BME280;6136;47.032;15.398;2022-09-09T08:55:54;97568.03;;;19.05;nan
12146;BME280;6136;47.032;15.398;2022-09-09T08:58:46;97571.44;;;19.07;nan
12146;BME280;6136;47.032;15.398;2022-09-09T09:04:30;97563.72;;;20.73;nan
12146;BME280;6136;47.032;15.398;2022-09-09T09:07:15;97568.03;;;20.66;nan
12146;BME280;6136;47.032;15.398;2022-09-09T09:09:56;97569.34;;;20.62;nan
12146;BME280;6136;47.032;15.398;2022-09-09T09:12:32;97568.28;;;20.54;nan
12146;BME280;6136;47.032;15.398;2022-09-09T09:15:11;97566.28;;;20.57;nan
12146;BME280;6136;47.032;15.398;2022-09-09T09:17:43;97565.38;;;20.48;nan
12146;BME280;6136;47.032;15.398;2022-09-09T09:20:12;97555.25;;;20.68;nan
12146;BME280;6136;47.032;15.398;2022-09-09T09:22:48;97555.44;;;21.00;nan
12146;BME280;6136;47.032;15.398;2022-09-09T09:25:19;97563.03;;;21.30;nan
12146;BME280;6136;47.032;15.398;2022-09-09T09:27:54;97551.34;;;21.72;nan
12146;BME280;6136;47.032;15.398;2022-09-09T09:30:31;97557.75;;;23.09;nan
12146;BME280;6136;47.032;15.398;2022-09-09T09:33:11;97551.72;;;24.08;nan
12146;BME280;6136;47.032;15.398;2022-09-09T09:35:41;97548.94;;;24.38;nan
12146;BME280;6136;47.032;15.398;2022-09-09T09:38:20;97543.97;;;23.74;nan
12146;BME280;6136;47.032;15.398;2022-09-09T09:41:10;97541.22;;;23.12;nan
12146;BME280;6136;47.032;15.398;2022-09-09T09:43:40;97539.78;;;22.77;nan
12146;BME280;6136;47.032;15.398;2022-09-09T09:46:21;97547.03;;;22.76;nan
12146;BME280;6136;47.032;15.398;2022-09-09T09:49:00;97547.78;;;23.09;nan
12146;BME280;6136;47.032;15.398;2022-09-09T09:51:30;97547.56;;;23.66;nan
12146;BME280;6136;47.032;15.398;2022-09-09T09:54:16;97547.53;;;23.97;nan
12146;BME280;6136;47.032;15.398;2022-09-09T09:56:51;97549.19;;;24.52;nan
12146;BME280;6136;47.032;15.398;2022-09-09T09:59:21;97537.09;;;25.06;nan
12146;BME280;6136;47.032;15.398;2022-09-09T10:02:31;97548.44;;;25.25;nan
12146;BME280;6136;47.032;15.398;2022-09-09T10:05:14;97546.44;;;27.53;nan
12146;BME280;6136;47.032;15.398;2022-09-09T10:07:45;97533.00;;;27.10;nan
12146;BME280;6136;47.032;15.398;2022-09-09T10:10:21;97530.88;;;26.07;nan
12146;BME280;6136;47.032;15.398;2022-09-09T10:12:58;97540.34;;;25.75;nan
12146;BME280;6136;47.032;15.398;2022-09-09T10:15:41;97542.34;;;25.08;nan
12146;BME280;6136;47.032;15.398;2022-09-09T10:18:25;97529.97;;;24.16;nan
12146;BME280;6136;47.032;15.398;2022-09-09T10:21:03;97535.34;;;23.78;nan
12146;BME280;6136;47.032;15.398;2022-09-09T10:23:48;97524.06;;;24.12;nan
12146;BME280;6136;47.032;15.398;2022-09-09T10:26:30;97522.09;;;24.66;nan
12146;BME280;6136;47.032;15.398;2022-09-09T10:29:22;97507.28;;;25.06;nan
12146;BME280;6136;47.032;15.398;2022-09-09T10:32:02;97516.66;;;25.19;nan
12146;BME280;6136;47.032;15.398;2022-09-09T10:34:49;97514.75;;;25.84;nan
12146;BME280;6136;47.032;15.398;2022-09-09T10:37:32;97519.09;;;25.64;nan
12146;BME280;6136;47.032;15.398;2022-09-09T10:40:25;97515.06;;;25.96;nan
12146;BME280;6136;47.032;15.398;2022-09-09T10:43:04;97505.03;;;25.75;nan
12146;BME280;6136;47.032;15.398;2022-09-09T10:45:47;97510.66;;;25.08;nan
12146;BME280;6136;47.032;15.398;2022-09-09T10:48:31;97511.16;;;23.99;nan
12146;BME280;6136;47.032;15.398;2022-09-09T10:51:15;97510.03;;;23.32;nan
12146;BME280;6136;47.032;15.398;2022-09-09T10:53:53;97506.16;;;22.88;nan
12146;BME280;6136;47.032;15.398;2022-09-09T10:56:26;97498.38;;;22.68;nan
12146;BME280;6136;47.032;15.398;2022-09-09T10:58:59;97496.06;;;22.57;nan
12146;BME280;6136;47.032;15.398;2022-09-09T11:01:31;97489.34;;;22.45;nan
12146;BME280;6136;47.032;15.398;2022-09-09T11:04:05;97494.06;;;22.43;nan
12146;BME280;6136;47.032;15.398;2022-09-09T11:06:42;97486.66;;;22.21;nan
12146;BME280;6136;47.032;15.398;2022-09-09T11:09:16;97486.81;;;22.11;nan
12146;BME280;6136;47.032;15.398;2022-09-09T11:11:50;97483.13;;;22.04;nan
12146;BME280;6136;47.032;15.398;2022-09-09T11:14:26;97477.88;;;22.02;nan
12146;BME280;6136;47.032;15.398;2022-09-09T11:17:06;97482.44;;;22.18;nan
12146;BME280;6136;47.032;15.398;2022-09-09T11:19:38;97483.28;;;22.19;nan
12146;BME280;6136;47.032;15.398;2022-09-09T11:22:15;97477.88;;;22.19;nan
12146;BME280;6136;47.032;15.398;2022-09-09T11:24:50;97483.28;;;22.27;nan
12146;BME280;6136;47.032;15.398;2022-09-09T11:27:25;97477.00;;;22.42;nan
12146;BME280;6136;47.032;15.398;2022-09-09T11:30:19;97462.34;;;22.45;nan
12146;BME280;6136;47.032;15.398;2022-09-09T11:33:28;97467.75;;;22.45;nan
12146;BME280;6136;47.032;15.398;2022-09-09T11:36:15;97453.56;;;22.43;nan
12146;BME280;6136;47.032;15.398;2022-09-09T11:38:50;97454.50;;;22.66;nan
12146;BME280;6136;47.032;15.398;2022-09-09T11:41:20;97453.84;;;22.64;nan
12146;BME280;6136;47.032;15.398;2022-09-09T11:43:50;97453.13;;;22.78;nan
12146;BME280;6136;47.032;15.398;2022-09-09T11:46:20;97454.97;;;22.86;nan
12146;BME280;6136;47.032;15.398;2022-09-09T11:48:59;97437.25;;;23.14;nan
12146;BME280;6136;47.032;15.398;2022-09-09T11:51:28;97449.28;;;23.12;nan
12146;BME280;6136;47.032;15.398;2022-09-09T11:53:59;97450.06;;;22.90;nan
12146;BME280;6136;47.032;15.398;2022-09-09T11:56:30;97443.63;;;22.91;nan
12146;BME280;6136;47.032;15.398;2022-09-09T11:59:01;97443.13;;;22.95;nan
12146;BME280;6136;47.032;15.398;2022-09-09T12:01:38;97434.34;;;22.93;nan
12146;BME280;6136;47.032;15.398;2022-09-09T12:07:00;97430.41;;;23.04;nan
12146;BME280;6136;47.032;15.398;2022-09-09T12:09:43;97421.94;;;23.07;nan
12146;BME280;6136;47.032;15.398;2022-09-09T12:12:29;97414.88;;;22.98;nan
12146;BME280;6136;47.032;15.398;2022-09-09T12:15:01;97415.13;;;22.88;nan
12146;BME280;6136;47.032;15.398;2022-09-09T12:17:30;97418.69;;;22.72;nan
12146;BME280;6136;47.032;15.398;2022-09-09T12:20:02;97415.66;;;22.75;nan
12146;BME280;6136;47.032;15.398;2022-09-09T12:22:40;97414.03;;;22.50;nan
12146;BME280;6136;47.032;15.398;2022-09-09T12:25:20;97412.31;;;22.57;nan
12146;BME280;6136;47.032;15.398;2022-09-09T12:28:01;97412.72;;;22.38;nan
12146;BME280;6136;47.032;15.398;2022-09-09T12:30:34;97414.03;;;22.50;nan
12146;BME280;6136;47.032;15.398;2022-09-09T12:33:10;97411.16;;;22.60;nan
12146;BME280;6136;47.032;15.398;2022-09-09T12:35:41;97401.66;;;22.64;nan
12146;BME280;6136;47.032;15.398;2022-09-09T12:38:14;97408.09;;;22.55;nan
12146;BME280;6136;47.032;15.398;2022-09-09T12:40:53;97397.31;;;22.46;nan
12146;BME280;6136;47.032;15.398;2022-09-09T12:43:24;97386.34;;;22.48;nan
12146;BME280;6136;47.032;15.398;2022-09-09T12:45:55;97384.19;;;22.43;nan
12146;BME280;6136;47.032;15.398;2022-09-09T12:48:28;97376.06;;;22.52;nan
12146;BME280;6136;47.032;15.398;2022-09-09T12:50:58;97383.63;;;22.56;nan
12146;BME280;6136;47.032;15.398;2022-09-09T12:53:30;97392.41;;;22.58;nan
12146;BME280;6136;47.032;15.398;2022-09-09T12:56:05;97391.09;;;22.38;nan
12146;BME280;6136;47.032;15.398;2022-09-09T12:58:36;97388.09;;;22.33;nan
12146;BME280;6136;47.032;15.398;2022-09-09T13:01:05;97385.44;;;22.17;nan
12146;BME280;6136;47.032;15.398;2022-09-09T13:03:42;97368.25;;;22.10;nan
12146;BME280;6136;47.032;15.398;2022-09-09T13:06:16;97376.03;;;21.96;nan
12146;BME280;6136;47.032;15.398;2022-09-09T13:08:46;97376.19;;;22.03;nan
12146;BME280;6136;47.032;15.398;2022-09-09T13:11:18;97377.38;;;21.92;nan
12146;BME280;6136;47.032;15.398;2022-09-09T13:13:54;97381.41;;;21.80;nan
12146;BME280;6136;47.032;15.398;2022-09-09T13:16:25;97366.41;;;21.78;nan
12146;BME280;6136;47.032;15.398;2022-09-09T13:18:59;97361.50;;;21.81;nan
12146;BME280;6136;47.032;15.398;2022-09-09T13:21:34;97359.50;;;21.83;nan
12146;BME280;6136;47.032;15.398;2022-09-09T13:24:05;97353.41;;;21.89;nan
12146;BME280;6136;47.032;15.398;2022-09-09T13:26:35;97347.88;;;21.99;nan
12146;BME280;6136;47.032;15.398;2022-09-09T13:29:15;97352.56;;;22.05;nan
12146;BME280;6136;47.032;15.398;2022-09-09T13:31:45;97356.97;;;22.06;nan
12146;BME280;6136;47.032;15.398;2022-09-09T13:34:25;97347.31;;;21.95;nan
12146;BME280;6136;47.032;15.398;2022-09-09T13:36:59;97349.03;;;21.80;nan
12146;BME280;6136;47.032;15.398;2022-09-09T13:39:28;97346.34;;;21.72;nan
12146;BME280;6136;47.032;15.398;2022-09-09T13:41:58;97342.66;;;21.57;nan
12146;BME280;6136;47.032;15.398;2022-09-09T13:44:27;97339.31;;;21.47;nan
12146;BME280;6136;47.032;15.398;2022-09-09T13:47:02;97343.16;;;21.20;nan
12146;BME280;6136;47.032;15.398;2022-09-09T13:49:35;97349.00;;;21.15;nan
12146;BME280;6136;47.032;15.398;2022-09-09T13:52:08;97345.31;;;21.08;nan
12146;BME280;6136;47.032;15.398;2022-09-09T13:54:36;97343.97;;;21.04;nan
12146;BME280;6136;47.032;15.398;2022-09-09T13:57:14;97346.13;;;21.01;nan
12146;BME280;6136;47.032;15.398;2022-09-09T13:59:44;97335.88;;;20.96;nan
12146;BME280;6136;47.032;15.398;2022-09-09T14:02:30;97339.00;;;20.83;nan
12146;BME280;6136;47.032;15.398;2022-09-09T14:04:58;97336.50;;;20.82;nan